Time;durP1;ratioP1;P1;durP2;ratioP2;P2;SDS_P1;SDS_P2;PMS_P1;PMS_P2;Temp;Humidity;BMP_temperature;BMP_pressure;BME280_temperature;BME280_humidity;BME280_pressure;Samples;Min_cycle;Max_cycle;Signal;HPM_P1;HPM_P2
2022/08/25 00:00:43;;;;;;;7.70;4.20;;;23.50;99.90;;;;;;5050880;28;20021;-71
2022/08/25 00:03:10;;;;;;;10.25;4.82;;;23.50;99.90;;;;;;5050686;28;20025;-71
2022/08/25 00:05:35;;;;;;;6.25;4.82;;;23.50;99.90;;;;;;5032542;28;20025;-71
2022/08/25 00:08:04;;;;;;;6.60;5.10;;;23.50;99.90;;;;;;5048518;28;20477;-72
2022/08/25 00:10:31;;;;;;;5.80;4.38;;;23.50;99.90;;;;;;5045298;28;20034;-71
2022/08/25 00:12:57;;;;;;;5.63;4.30;;;23.40;99.90;;;;;;5039207;28;20112;-70
2022/08/25 00:15:22;;;;;;;6.50;4.63;;;23.40;99.90;;;;;;5048033;28;20112;-71
2022/08/25 00:17:49;;;;;;;5.70;5.00;;;23.40;99.90;;;;;;5049597;28;20478;-71
2022/08/25 00:20:15;;;;;;;7.43;4.93;;;23.30;99.90;;;;;;5050426;28;20021;-71
2022/08/25 00:22:41;;;;;;;5.45;4.95;;;23.30;99.90;;;;;;5051828;28;20032;-71
2022/08/25 00:25:07;;;;;;;6.80;5.05;;;23.20;99.90;;;;;;5058618;28;20500;-72
2022/08/25 00:27:33;;;;;;;6.90;4.90;;;23.20;99.90;;;;;;5055311;28;20090;-79
2022/08/25 00:29:59;;;;;;;5.90;4.82;;;23.20;99.90;;;;;;5053660;28;20025;-80
2022/08/25 00:32:25;;;;;;;8.10;4.88;;;23.20;99.90;;;;;;5045473;28;20078;-78
2022/08/25 00:34:52;;;;;;;7.45;5.40;;;23.20;99.90;;;;;;5049782;28;20025;-79
2022/08/25 00:37:18;;;;;;;6.20;4.90;;;23.10;99.90;;;;;;5023767;28;20041;-80
2022/08/25 00:39:44;;;;;;;8.27;6.07;;;23.10;99.90;;;;;;5048817;28;20104;-81
2022/08/25 00:42:11;;;;;;;6.10;4.88;;;23.00;99.90;;;;;;5051916;28;20044;-81
2022/08/25 00:44:38;;;;;;;7.75;5.13;;;23.00;99.90;;;;;;5053738;28;20377;-81
2022/08/25 00:47:05;;;;;;;6.22;5.70;;;23.00;99.90;;;;;;5053938;28;20036;-81
2022/08/25 00:49:56;;;;;;;8.40;5.65;;;22.80;99.90;;;;;;5053777;28;20029;-76
2022/08/25 00:52:42;;;;;;;6.03;5.35;;;22.80;99.90;;;;;;5039762;28;20041;-81
2022/08/25 00:55:17;;;;;;;10.25;5.78;;;22.80;99.90;;;;;;5043686;28;20373;-75
2022/08/25 00:57:46;;;;;;;5.90;5.40;;;22.80;99.90;;;;;;5053644;28;20044;-81
2022/08/25 01:00:30;;;;;;;7.00;6.30;;;22.80;99.90;;;;;;5053845;28;20057;-81
2022/08/25 01:02:56;;;;;;;6.90;6.22;;;22.60;99.90;;;;;;5053708;28;20025;-82
2022/08/25 01:05:25;;;;;;;8.60;5.82;;;22.60;99.90;;;;;;5043957;28;20031;-80
2022/08/25 01:07:51;;;;;;;7.90;6.70;;;22.40;99.90;;;;;;5054567;28;20044;-81
2022/08/25 01:10:20;;;;;;;7.25;6.13;;;22.40;99.90;;;;;;5053353;28;20354;-81
2022/08/25 01:12:46;;;;;;;10.13;6.78;;;22.40;99.90;;;;;;5050745;28;20021;-78
2022/08/25 01:15:13;;;;;;;10.65;7.38;;;22.30;99.90;;;;;;5053055;28;20029;-81
2022/08/25 01:17:51;;;;;;;12.75;7.70;;;22.40;99.90;;;;;;5053357;28;20017;-81
2022/08/25 01:20:18;;;;;;;11.15;7.22;;;22.30;99.90;;;;;;5034428;28;20028;-80
2022/08/25 01:22:45;;;;;;;7.22;6.60;;;22.20;99.90;;;;;;5052792;28;20017;-76
2022/08/25 01:25:34;;;;;;;8.02;6.65;;;22.20;99.90;;;;;;5053224;28;20108;-81
2022/08/25 01:27:59;;;;;;;7.82;6.50;;;22.20;99.90;;;;;;5024106;28;20056;-81
2022/08/25 01:30:26;;;;;;;8.82;6.82;;;22.20;99.90;;;;;;5052173;28;20102;-81
2022/08/25 01:32:51;;;;;;;7.28;6.18;;;22.20;99.90;;;;;;5052676;28;20051;-79
2022/08/25 01:35:17;;;;;;;7.53;5.53;;;22.10;99.90;;;;;;5052271;28;20032;-82
2022/08/25 01:37:43;;;;;;;7.03;6.30;;;22.10;99.90;;;;;;5052765;28;20194;-82
2022/08/25 01:40:10;;;;;;;6.88;6.03;;;22.10;99.90;;;;;;5052553;28;20036;-81
2022/08/25 01:43:08;;;;;;;7.28;6.07;;;22.10;99.90;;;;;;5052780;28;20024;-81
2022/08/25 01:45:35;;;;;;;7.75;6.13;;;22.10;99.90;;;;;;5030205;28;20025;-74
2022/08/25 01:48:01;;;;;;;6.35;5.75;;;22.10;99.90;;;;;;5051380;28;20040;-82
2022/08/25 01:50:27;;;;;;;7.60;5.50;;;22.10;99.90;;;;;;5052483;28;20025;-81
2022/08/25 01:53:21;;;;;;;10.48;6.15;;;22.10;99.90;;;;;;5034938;28;20028;-81
2022/08/25 01:56:00;;;;;;;9.57;6.10;;;22.10;99.90;;;;;;5051364;28;20056;-81
2022/08/25 01:58:32;;;;;;;11.07;6.40;;;22.10;99.90;;;;;;5052393;28;20021;-82
2022/08/25 02:01:01;;;;;;;6.55;6.00;;;22.10;99.90;;;;;;5049484;28;20102;-82
2022/08/25 02:03:27;;;;;;;7.50;6.30;;;22.00;99.90;;;;;;5052569;28;20029;-81
2022/08/25 02:05:55;;;;;;;11.35;6.95;;;22.00;99.90;;;;;;5052503;28;20025;-79
2022/08/25 02:08:22;;;;;;;9.48;6.70;;;22.00;99.90;;;;;;5052065;28;20040;-82
2022/08/25 02:10:49;;;;;;;8.00;6.32;;;22.00;99.90;;;;;;5051979;28;20064;-82
2022/08/25 02:13:15;;;;;;;11.02;7.63;;;21.90;99.90;;;;;;5052305;28;20017;-71
2022/08/25 02:15:43;;;;;;;9.15;7.47;;;21.90;99.90;;;;;;5052369;28;20474;-71
2022/08/25 02:18:10;;;;;;;9.77;7.45;;;21.90;99.90;;;;;;5051276;28;20377;-71
2022/08/25 02:20:36;;;;;;;9.02;7.40;;;21.90;99.90;;;;;;5051534;28;20021;-74
2022/08/25 02:23:03;;;;;;;8.65;7.40;;;21.90;99.90;;;;;;5033723;28;20055;-71
2022/08/25 02:25:30;;;;;;;8.35;7.05;;;21.80;99.90;;;;;;5051592;28;20017;-72
2022/08/25 02:27:55;;;;;;;8.43;6.35;;;21.80;99.90;;;;;;5053116;28;20037;-70
2022/08/25 02:30:21;;;;;;;10.23;7.05;;;21.80;99.90;;;;;;5052960;28;20033;-71
2022/08/25 02:32:47;;;;;;;10.20;7.55;;;21.70;99.90;;;;;;5051492;28;20104;-71
2022/08/25 02:35:13;;;;;;;9.45;7.45;;;21.60;99.90;;;;;;5039719;28;20531;-70
2022/08/25 02:37:39;;;;;;;8.45;7.18;;;21.60;99.90;;;;;;5053693;28;20063;-71
2022/08/25 02:40:06;;;;;;;8.10;7.03;;;21.50;99.90;;;;;;5054917;28;20032;-74
2022/08/25 02:42:32;;;;;;;11.23;6.93;;;21.50;99.90;;;;;;5052488;28;20029;-75
2022/08/25 02:44:57;;;;;;;10.35;7.25;;;21.50;99.90;;;;;;5052828;28;20473;-79
2022/08/25 02:47:23;;;;;;;10.50;5.43;;;21.50;99.90;;;;;;5052264;28;20041;-73
2022/08/25 02:49:49;;;;;;;9.15;5.95;;;21.50;99.90;;;;;;5052680;28;20029;-72
2022/08/25 02:52:15;;;;;;;8.55;5.95;;;21.50;99.90;;;;;;5052197;28;20035;-71
2022/08/25 02:54:41;;;;;;;6.85;5.95;;;21.50;99.90;;;;;;5052789;28;20075;-73
2022/08/25 02:57:07;;;;;;;9.45;6.45;;;21.40;99.90;;;;;;5052734;28;20052;-75
2022/08/25 02:59:34;;;;;;;9.20;6.28;;;21.40;99.90;;;;;;5052812;28;20025;-72
2022/08/25 03:02:00;;;;;;;8.85;6.97;;;21.40;99.90;;;;;;5052359;28;20029;-72
2022/08/25 03:04:27;;;;;;;8.68;6.90;;;21.40;99.90;;;;;;5052619;28;20100;-71
2022/08/25 03:06:53;;;;;;;8.75;7.13;;;21.40;99.90;;;;;;5052174;28;20142;-71
2022/08/25 03:09:19;;;;;;;9.23;7.60;;;21.40;99.90;;;;;;5052588;28;20112;-71
2022/08/25 03:11:45;;;;;;;10.82;8.30;;;21.40;99.90;;;;;;5051980;28;20389;-71
2022/08/25 03:14:11;;;;;;;11.52;9.05;;;21.40;99.90;;;;;;5052621;28;20434;-74
2022/08/25 03:16:37;;;;;;;12.43;8.18;;;21.30;99.90;;;;;;5052435;28;20138;-72
2022/08/25 03:19:03;;;;;;;11.88;8.95;;;21.30;99.90;;;;;;5052541;28;20383;-71
2022/08/25 03:21:29;;;;;;;10.82;7.93;;;21.30;99.90;;;;;;5052354;28;20021;-72
2022/08/25 03:23:55;;;;;;;8.60;7.38;;;21.30;99.90;;;;;;5052302;28;20048;-72
2022/08/25 03:29:07;;;;;;;11.25;7.82;;;21.20;99.90;;;;;;5052452;28;20528;-71
2022/08/25 03:31:33;;;;;;;10.48;7.82;;;21.20;99.90;;;;;;5051421;28;20025;-73
2022/08/25 03:34:00;;;;;;;10.48;7.45;;;21.20;99.90;;;;;;5052322;28;20024;-70
2022/08/25 03:36:27;;;;;;;9.77;8.20;;;21.10;99.90;;;;;;5052414;28;20465;-72
2022/08/25 03:38:53;;;;;;;10.55;8.13;;;21.10;99.90;;;;;;5052001;28;20021;-71
2022/08/25 03:41:22;;;;;;;9.75;8.20;;;21.10;99.90;;;;;;5051499;28;20040;-71
2022/08/25 03:43:48;;;;;;;13.00;7.93;;;21.10;99.90;;;;;;5033993;28;20389;-73
2022/08/25 03:46:23;;;;;;;13.27;7.28;;;21.10;99.90;;;;;;5052474;28;20509;-72
2022/08/25 03:48:50;;;;;;;8.07;7.03;;;21.10;99.90;;;;;;5052388;28;20064;-72
2022/08/25 03:51:25;;;;;;;9.27;7.93;;;21.00;99.90;;;;;;5051983;28;20025;-72
2022/08/25 03:53:51;;;;;;;9.13;7.47;;;21.00;99.90;;;;;;5051416;28;20230;-71
2022/08/25 03:56:18;;;;;;;10.55;7.90;;;20.90;99.90;;;;;;5052206;28;20021;-73
2022/08/25 03:58:44;;;;;;;10.90;7.40;;;20.80;99.90;;;;;;5053189;28;20469;-71
2022/08/25 04:01:10;;;;;;;11.82;7.07;;;20.70;99.90;;;;;;5055416;28;20028;-70
2022/08/25 04:03:36;;;;;;;10.02;7.05;;;20.70;99.90;;;;;;5056126;28;20409;-75
2022/08/25 04:06:04;;;;;;;9.68;7.20;;;20.70;99.90;;;;;;5041891;28;20041;-71
2022/08/25 04:08:30;;;;;;;8.13;7.05;;;20.60;99.90;;;;;;5035058;28;20044;-70
2022/08/25 04:10:55;;;;;;;10.73;6.75;;;20.60;99.90;;;;;;5017790;28;20030;-71
2022/08/25 04:13:21;;;;;;;7.95;7.03;;;20.60;99.90;;;;;;5046028;28;20036;-75
2022/08/25 04:15:47;;;;;;;9.40;7.22;;;20.60;99.90;;;;;;5055800;28;20029;-72
2022/08/25 04:18:13;;;;;;;10.73;6.95;;;20.60;99.90;;;;;;5054694;28;20028;-72
2022/08/25 04:20:41;;;;;;;11.10;7.00;;;20.60;99.90;;;;;;5055431;28;20389;-71
2022/08/25 04:23:08;;;;;;;12.52;7.20;;;20.50;99.90;;;;;;5050793;28;20557;-70
2022/08/25 04:25:33;;;;;;;9.65;7.60;;;20.40;99.90;;;;;;5055652;28;20420;-70
2022/08/25 04:27:59;;;;;;;8.20;7.00;;;20.30;99.90;;;;;;5054970;28;20033;-71
2022/08/25 04:30:25;;;;;;;10.05;7.10;;;20.30;99.90;;;;;;5054866;28;20037;-70
2022/08/25 04:32:51;;;;;;;8.88;7.13;;;20.40;99.90;;;;;;5055523;28;20385;-72
2022/08/25 04:35:16;;;;;;;13.80;7.20;;;20.30;99.90;;;;;;5055487;28;20032;-72
2022/08/25 04:37:42;;;;;;;9.40;6.55;;;20.30;99.90;;;;;;5055301;28;20612;-71
2022/08/25 04:40:08;;;;;;;12.48;7.70;;;20.20;99.90;;;;;;5054258;28;20033;-71
2022/08/25 04:42:34;;;;;;;13.52;6.85;;;20.10;99.90;;;;;;5054878;28;20021;-71
2022/08/25 04:45:00;;;;;;;11.77;7.00;;;20.20;99.90;;;;;;5055349;28;20086;-71
2022/08/25 04:47:27;;;;;;;10.05;7.65;;;20.10;99.90;;;;;;5055052;28;20051;-70
2022/08/25 04:49:53;;;;;;;12.52;7.55;;;20.10;99.90;;;;;;5055066;28;20017;-71
2022/08/25 04:52:19;;;;;;;13.27;7.13;;;20.10;99.90;;;;;;5054153;28;20028;-70
2022/08/25 04:54:45;;;;;;;10.07;6.30;;;20.10;99.90;;;;;;5055017;28;20491;-71
2022/08/25 04:57:11;;;;;;;8.07;6.05;;;20.10;99.90;;;;;;5058494;28;20033;-71
2022/08/25 04:59:37;;;;;;;9.27;5.88;;;19.90;99.90;;;;;;5039521;28;20036;-83
2022/08/25 05:02:05;;;;;;;10.00;6.35;;;20.10;99.90;;;;;;5054929;28;20060;-82
2022/08/25 05:04:32;;;;;;;7.85;6.60;;;20.00;99.90;;;;;;5054747;28;20175;-82
2022/08/25 05:06:58;;;;;;;8.43;6.25;;;20.00;99.90;;;;;;5054594;28;20021;-83
2022/08/25 05:09:24;;;;;;;9.60;6.13;;;20.00;99.90;;;;;;5054118;28;20108;-83
2022/08/25 05:11:50;;;;;;;9.20;6.13;;;20.00;99.90;;;;;;5054030;28;20420;-82
2022/08/25 05:14:20;;;;;;;13.82;6.78;;;20.10;99.90;;;;;;5036372;28;20116;-80
2022/08/25 05:16:46;;;;;;;13.20;6.78;;;20.10;99.90;;;;;;5054549;28;20017;-69
2022/08/25 05:19:11;;;;;;;10.10;6.10;;;20.10;99.90;;;;;;5054132;28;20412;-81
2022/08/25 05:21:37;;;;;;;8.82;5.90;;;20.10;99.90;;;;;;5036535;28;20021;-81
2022/08/25 05:24:04;;;;;;;8.98;5.65;;;20.20;99.90;;;;;;5054473;28;20025;-82
2022/08/25 05:26:31;;;;;;;10.18;6.70;;;20.20;99.90;;;;;;5054592;28;20401;-80
2022/08/25 05:28:58;;;;;;;8.88;6.20;;;20.20;99.90;;;;;;5054262;28;20029;-80
2022/08/25 05:31:25;;;;;;;9.90;5.15;;;20.20;99.90;;;;;;5054075;28;20496;-82
2022/08/25 05:33:52;;;;;;;6.65;6.05;;;20.20;99.90;;;;;;5054157;28;20021;-81
2022/08/25 05:36:19;;;;;;;6.90;6.13;;;20.20;99.90;;;;;;5054007;28;20457;-81
2022/08/25 05:38:45;;;;;;;8.65;5.90;;;20.30;99.90;;;;;;5053411;28;20025;-82
2022/08/25 05:41:15;;;;;;;8.43;6.00;;;20.30;99.90;;;;;;5050835;28;20032;-80
2022/08/25 05:43:42;;;;;;;8.65;5.38;;;20.30;99.90;;;;;;5070039;28;20024;-81
2022/08/25 05:46:08;;;;;;;6.57;5.30;;;20.30;99.90;;;;;;5054256;28;20032;-76
2022/08/25 05:48:34;;;;;;;12.10;5.72;;;20.20;99.90;;;;;;5053973;28;20083;-82
2022/08/25 05:51:03;;;;;;;9.88;5.63;;;20.30;99.90;;;;;;5053719;28;20025;-79
2022/08/25 05:53:29;;;;;;;6.25;4.50;;;20.30;99.90;;;;;;5053075;28;20036;-74
2022/08/25 05:55:57;;;;;;;9.68;5.55;;;20.20;99.90;;;;;;5056687;28;20151;-81
2022/08/25 05:58:24;;;;;;;8.93;5.20;;;20.30;99.90;;;;;;5053868;28;20416;-79
2022/08/25 06:00:50;;;;;;;8.85;5.15;;;20.40;99.90;;;;;;5063472;28;20039;-70
2022/08/25 06:03:16;;;;;;;9.40;5.88;;;20.40;99.90;;;;;;5064100;28;20075;-70
2022/08/25 06:05:42;;;;;;;7.85;5.18;;;20.40;99.90;;;;;;5070401;28;20107;-70
2022/08/25 06:08:08;;;;;;;7.88;5.22;;;20.50;99.90;;;;;;5062397;28;20116;-70
2022/08/25 06:10:36;;;;;;;8.70;5.18;;;20.50;99.90;;;;;;5051784;28;20025;-70
2022/08/25 06:13:02;;;;;;;11.13;5.47;;;20.50;99.90;;;;;;5052446;28;20063;-70
2022/08/25 06:15:28;;;;;;;31.52;6.85;;;20.50;99.90;;;;;;5053014;28;20527;-71
2022/08/25 06:17:56;;;;;;;21.92;6.30;;;20.50;99.90;;;;;;5057280;28;20070;-71
2022/08/25 06:20:25;;;;;;;14.23;5.78;;;20.60;99.90;;;;;;5036001;28;20022;-73
2022/08/25 06:22:51;;;;;;;11.30;5.28;;;20.60;99.90;;;;;;5041955;28;20498;-71
2022/08/25 06:25:20;;;;;;;5.50;4.90;;;20.60;99.90;;;;;;5032383;28;20068;-74
2022/08/25 06:27:46;;;;;;;8.27;4.97;;;20.60;99.90;;;;;;5050298;28;20436;-74
2022/08/25 06:30:14;;;;;;;8.10;4.45;;;20.70;99.90;;;;;;5046645;28;20041;-74
2022/08/25 06:32:42;;;;;;;13.43;5.22;;;20.70;99.90;;;;;;5052583;28;20028;-75
2022/08/25 06:35:11;;;;;;;8.95;4.05;;;20.80;99.90;;;;;;5052372;28;20071;-74
2022/08/25 06:37:38;;;;;;;7.53;5.10;;;20.80;99.90;;;;;;5052632;28;20084;-74
2022/08/25 06:40:08;;;;;;;8.82;5.28;;;20.80;99.90;;;;;;5052082;28;20075;-74
2022/08/25 06:42:36;;;;;;;10.82;4.80;;;20.80;99.90;;;;;;5052978;28;20532;-74
2022/08/25 06:45:03;;;;;;;6.70;4.90;;;20.80;99.90;;;;;;5051768;28;20035;-74
2022/08/25 06:47:28;;;;;;;6.93;5.40;;;20.90;99.90;;;;;;5053041;28;20025;-74
2022/08/25 06:49:54;;;;;;;4.90;4.43;;;21.00;99.90;;;;;;5051750;28;20098;-74
2022/08/25 06:52:20;;;;;;;9.93;5.07;;;21.00;99.90;;;;;;5055488;28;20029;-74
2022/08/25 06:54:46;;;;;;;7.43;4.00;;;21.10;99.90;;;;;;5061661;28;20535;-73
2022/08/25 06:57:14;;;;;;;9.30;4.75;;;21.10;99.90;;;;;;5052915;28;20481;-90
2022/08/25 06:59:41;;;;;;;12.20;4.55;;;21.10;99.90;;;;;;5064404;28;20028;-89
2022/08/25 07:02:07;;;;;;;7.80;4.78;;;21.10;99.90;;;;;;5032873;28;20021;-79
2022/08/25 07:04:34;;;;;;;8.98;4.72;;;21.20;99.90;;;;;;5047150;28;20055;-76
2022/08/25 07:07:00;;;;;;;6.45;4.10;;;21.30;99.90;;;;;;5052717;28;20051;-88
2022/08/25 07:09:26;;;;;;;10.38;4.88;;;21.40;99.90;;;;;;5048772;28;20062;-70
2022/08/25 07:11:52;;;;;;;5.00;4.20;;;21.40;99.90;;;;;;5050553;28;20454;-70
2022/08/25 07:14:18;;;;;;;10.23;4.65;;;21.40;99.90;;;;;;5054156;28;20063;-71
2022/08/25 07:16:45;;;;;;;4.80;3.90;;;21.50;99.90;;;;;;5063366;28;20017;-71
2022/08/25 07:19:11;;;;;;;7.80;4.47;;;21.50;99.90;;;;;;5042282;28;20219;-73
2022/08/25 07:21:40;;;;;;;5.07;4.15;;;21.60;99.90;;;;;;5050829;28;20488;-72
2022/08/25 07:24:09;;;;;;;6.63;3.60;;;21.70;99.90;;;;;;5034229;28;20021;-72
2022/08/25 07:26:35;;;;;;;7.63;4.78;;;21.80;99.90;;;;;;5055175;28;20036;-72
2022/08/25 07:29:10;;;;;;;7.05;4.07;;;21.90;99.90;;;;;;5062682;28;20044;-73
2022/08/25 07:31:36;;;;;;;5.28;3.90;;;22.00;99.90;;;;;;5060313;28;20074;-72
2022/08/25 07:36:46;;;;;;;7.45;4.05;;;22.20;99.90;;;;;;5062896;28;20063;-75
2022/08/25 07:39:12;;;;;;;7.82;4.03;;;22.30;99.90;;;;;;5067944;28;20477;-73
2022/08/25 07:41:39;;;;;;;9.20;3.88;;;22.40;99.90;;;;;;5068316;28;20361;-73
2022/08/25 07:44:06;;;;;;;5.22;3.83;;;22.60;99.90;;;;;;5067237;28;20024;-75
2022/08/25 07:46:32;;;;;;;7.38;3.63;;;22.80;99.90;;;;;;5066222;28;20362;-72
2022/08/25 07:48:58;;;;;;;7.72;3.55;;;22.80;99.90;;;;;;5068163;28;20542;-73
2022/08/25 07:51:24;;;;;;;7.30;3.67;;;23.00;99.90;;;;;;5065597;28;20029;-72
2022/08/25 07:53:50;;;;;;;9.68;3.70;;;23.20;99.90;;;;;;5066897;28;20468;-73
2022/08/25 07:56:17;;;;;;;5.20;3.10;;;23.30;99.90;;;;;;5050223;28;20017;-73
2022/08/25 07:58:44;;;;;;;8.45;3.92;;;23.50;99.90;;;;;;5050816;28;20025;-73
2022/08/25 08:01:16;;;;;;;7.30;3.42;;;23.60;99.90;;;;;;5046520;28;20051;-76
2022/08/25 08:03:41;;;;;;;8.27;3.60;;;23.70;99.90;;;;;;5042667;28;20490;-75
2022/08/25 08:06:10;;;;;;;6.95;3.30;;;23.80;99.90;;;;;;5055187;28;20103;-73
2022/08/25 08:08:44;;;;;;;7.60;3.60;;;24.00;99.90;;;;;;5057760;28;20021;-73
2022/08/25 08:11:33;;;;;;;4.50;3.30;;;24.20;99.90;;;;;;5068276;28;20024;-73
2022/08/25 08:13:59;;;;;;;9.95;3.33;;;24.30;99.90;;;;;;5056226;28;20040;-72
2022/08/25 08:16:28;;;;;;;10.57;3.83;;;24.40;99.90;;;;;;5057433;28;20028;-71
2022/08/25 08:18:54;;;;;;;6.53;3.50;;;24.60;99.90;;;;;;5061755;28;20104;-73
2022/08/25 08:21:23;;;;;;;8.40;3.20;;;24.60;99.90;;;;;;5065316;28;20129;-74
2022/08/25 08:23:50;;;;;;;8.45;3.25;;;24.80;99.90;;;;;;5060196;28;20374;-72
2022/08/25 08:26:16;;;;;;;8.13;3.88;;;24.90;99.90;;;;;;5062970;28;20493;-72
2022/08/25 08:28:43;;;;;;;4.50;3.10;;;25.00;99.90;;;;;;5064352;28;20033;-71
2022/08/25 08:31:09;;;;;;;6.28;3.08;;;25.10;99.90;;;;;;5066088;28;20463;-72
2022/08/25 08:33:35;;;;;;;7.22;3.47;;;25.20;99.90;;;;;;5065185;28;20025;-72
2022/08/25 08:36:02;;;;;;;5.95;3.10;;;25.30;99.90;;;;;;5044040;28;20024;-72
2022/08/25 08:38:28;;;;;;;8.65;3.67;;;25.40;99.90;;;;;;5068818;28;20028;-72
2022/08/25 08:44:29;;;;;;;6.05;3.90;;;25.50;99.90;;;;;;5053835;28;20056;-72
2022/08/25 08:47:27;;;;;;;8.65;3.50;;;25.40;99.90;;;;;;5041719;28;20036;-72
2022/08/25 08:50:23;;;;;;;5.20;3.35;;;25.50;99.90;;;;;;5050800;28;20061;-72
2022/08/25 08:52:51;;;;;;;7.43;3.70;;;25.60;99.90;;;;;;5041772;28;20151;-72
2022/08/25 08:55:31;;;;;;;10.48;4.72;;;25.70;99.90;;;;;;5041906;28;20037;-72
2022/08/25 08:58:00;;;;;;;5.65;3.08;;;25.90;99.90;;;;;;5033366;28;20029;-71
2022/08/25 09:00:27;;;;;;;5.00;3.25;;;26.00;99.90;;;;;;5052754;28;20734;-72
2022/08/25 09:03:39;;;;;;;10.38;3.67;;;26.00;99.90;;;;;;5058448;28;20552;-72
2022/08/25 09:06:10;;;;;;;5.85;3.42;;;26.00;99.90;;;;;;5060880;28;20025;-71
2022/08/25 09:08:38;;;;;;;7.72;2.97;;;26.20;99.90;;;;;;5062475;28;20029;-72
2022/08/25 09:11:16;;;;;;;14.23;3.30;;;26.20;99.90;;;;;;5055371;28;20036;-72
2022/08/25 09:13:56;;;;;;;8.05;3.08;;;26.30;99.90;;;;;;5035880;28;20045;-72
2022/08/25 09:16:53;;;;;;;7.70;3.28;;;26.40;99.90;;;;;;5041731;28;20021;-72
2022/08/25 09:19:44;;;;;;;5.32;3.28;;;26.50;99.90;;;;;;5045160;28;20075;-71
2022/08/25 09:22:39;;;;;;;8.18;3.38;;;26.70;99.90;;;;;;5031364;28;20436;-74
2022/08/25 09:25:20;;;;;;;5.78;3.08;;;26.80;99.90;;;;;;5023388;28;20036;-73
2022/08/25 09:27:53;;;;;;;9.15;3.50;;;27.00;99.90;;;;;;5036135;28;20033;-74
2022/08/25 09:30:21;;;;;;;9.43;3.40;;;27.10;99.90;;;;;;5032226;28;20026;-72
2022/08/25 09:32:48;;;;;;;3.90;3.08;;;27.30;99.90;;;;;;5052727;28;20025;-74
2022/08/25 09:35:19;;;;;;;6.82;3.60;;;27.50;99.90;;;;;;5052788;28;20075;-74
2022/08/25 09:38:04;;;;;;;6.10;3.03;;;27.60;99.90;;;;;;5038455;28;20029;-77
2022/08/25 09:40:33;;;;;;;5.95;3.38;;;27.90;99.90;;;;;;5020692;28;20476;-77
2022/08/25 09:43:16;;;;;;;7.22;4.22;;;28.20;99.90;;;;;;5052714;28;20329;-75
2022/08/25 09:45:45;;;;;;;6.53;3.30;;;28.30;99.90;;;;;;5052720;28;20071;-75
2022/08/25 09:48:25;;;;;;;6.45;3.28;;;28.30;99.90;;;;;;5053345;28;20039;-73
2022/08/25 09:51:01;;;;;;;5.38;3.08;;;28.30;99.90;;;;;;5053321;28;20025;-75
2022/08/25 09:53:28;;;;;;;6.40;2.95;;;28.30;99.90;;;;;;5053084;28;20362;-76
2022/08/25 09:56:05;;;;;;;7.80;3.40;;;28.20;99.90;;;;;;5051870;28;20033;-74
2022/08/25 09:58:31;;;;;;;8.63;3.67;;;28.20;99.90;;;;;;5042859;28;20021;-73
2022/08/25 10:01:12;;;;;;;5.50;3.10;;;28.40;99.90;;;;;;5053141;28;20021;-74
2022/08/25 10:03:54;;;;;;;8.20;3.92;;;28.60;99.90;;;;;;5041979;28;20099;-74
2022/08/25 10:06:21;;;;;;;8.60;3.50;;;28.60;99.90;;;;;;5038724;28;20025;-75
2022/08/25 10:08:47;;;;;;;6.88;3.30;;;28.70;99.90;;;;;;5062960;28;20154;-77
2022/08/25 10:11:29;;;;;;;7.47;3.72;;;28.70;99.90;;;;;;5061232;28;20082;-75
2022/08/25 10:14:33;;;;;;;6.43;3.35;;;28.60;99.90;;;;;;5041532;28;20020;-75
2022/08/25 10:17:14;;;;;;;4.47;3.28;;;28.80;99.90;;;;;;5058625;28;20104;-72
2022/08/25 10:19:41;;;;;;;6.13;3.80;;;29.00;99.40;;;;;;5060135;28;20051;-72
2022/08/25 10:22:19;;;;;;;5.53;3.38;;;29.20;99.90;;;;;;5062286;28;20025;-72
2022/08/25 10:24:45;;;;;;;6.68;3.40;;;29.40;99.90;;;;;;5043990;28;20021;-73
2022/08/25 10:27:32;;;;;;;4.07;2.38;;;29.40;99.90;;;;;;5060488;28;20488;-72
2022/08/25 10:30:11;;;;;;;5.05;2.95;;;29.60;99.70;;;;;;5059785;28;20087;-72
2022/08/25 10:32:59;;;;;;;4.60;3.20;;;29.80;99.90;;;;;;5056828;28;20025;-71
2022/08/25 10:35:51;;;;;;;7.95;2.97;;;30.00;96.90;;;;;;5002551;28;20029;-73
2022/08/25 10:38:38;;;;;;;4.40;3.40;;;30.20;97.20;;;;;;5060771;28;20100;-70
2022/08/25 10:41:41;;;;;;;6.88;2.42;;;30.40;96.80;;;;;;5059462;28;20021;-72
2022/08/25 10:45:41;;;;;;;;;;;30.50;96.40;;;;;;5061981;28;20112;-72
2022/08/25 10:47:08;;;;;;;4.88;3.50;;;30.60;96.60;;;;;;5057563;28;19966;-73
2022/08/25 10:49:46;;;;;;;7.95;3.95;;;30.80;96.10;;;;;;5063265;28;20124;-76
2022/08/25 10:52:22;;;;;;;7.10;3.47;;;31.00;95.60;;;;;;5052098;28;20075;-77
2022/08/25 10:54:59;;;;;;;5.38;3.72;;;31.10;95.30;;;;;;5043993;28;20025;-78
2022/08/25 10:57:38;;;;;;;6.38;3.58;;;31.20;95.10;;;;;;5042333;28;20025;-78
2022/08/25 11:00:11;;;;;;;9.15;3.20;;;31.30;93.70;;;;;;5058770;28;20032;-77
2022/08/25 11:02:58;;;;;;;7.05;3.17;;;31.40;93.30;;;;;;5054793;28;20020;-77
2022/08/25 11:05:42;;;;;;;7.75;3.50;;;31.50;93.60;;;;;;5059173;28;20464;-78
2022/08/25 11:08:29;;;;;;;5.03;2.75;;;31.60;93.00;;;;;;5048027;28;20091;-77
2022/08/25 11:11:23;;;;;;;8.50;3.13;;;31.80;92.80;;;;;;5021812;28;20056;-72
2022/08/25 11:14:01;;;;;;;5.68;2.92;;;31.90;95.20;;;;;;5041466;28;20454;-73
2022/08/25 11:16:32;;;;;;;8.70;2.95;;;31.90;93.70;;;;;;5035429;28;20025;-72
2022/08/25 11:19:14;;;;;;;4.80;2.80;;;31.90;90.20;;;;;;5024835;28;20037;-72
2022/08/25 11:21:52;;;;;;;6.03;2.83;;;32.00;90.60;;;;;;5043983;28;20025;-72
2022/08/25 11:24:53;;;;;;;5.53;3.03;;;32.10;91.20;;;;;;5051078;28;20108;-72
2022/08/25 11:27:31;;;;;;;7.53;3.25;;;32.20;91.70;;;;;;5050523;28;20469;-72
2022/08/25 11:30:17;;;;;;;4.90;2.67;;;32.30;91.20;;;;;;5033634;28;20075;-72
2022/08/25 11:32:52;;;;;;;4.47;2.60;;;32.20;89.90;;;;;;5047521;28;20060;-74
2022/08/25 11:35:25;;;;;;;3.28;2.35;;;32.30;90.10;;;;;;5055618;28;20032;-73
2022/08/25 11:38:14;;;;;;;7.68;2.63;;;32.40;82.90;;;;;;5045541;28;20165;-73
2022/08/25 11:41:17;;;;;;;2.50;2.22;;;32.40;85.30;;;;;;5055147;28;20060;-74
2022/08/25 11:43:55;;;;;;;4.30;2.58;;;32.40;90.20;;;;;;5028679;28;20377;-72
2022/08/25 11:46:38;;;;;;;5.75;3.08;;;32.40;84.30;;;;;;5054574;28;20369;-74
2022/08/25 11:49:40;;;;;;;7.72;2.83;;;32.50;85.70;;;;;;5050076;28;20029;-73
2022/08/25 11:52:31;;;;;;;11.07;2.70;;;32.60;86.90;;;;;;5047380;28;20029;-72
2022/08/25 11:55:17;;;;;;;7.60;2.50;;;32.60;90.20;;;;;;5047897;28;20025;-73
2022/08/25 11:57:46;;;;;;;6.78;2.85;;;32.80;90.50;;;;;;5049404;28;20033;-72
2022/08/25 12:00:33;;;;;;;4.93;2.80;;;32.90;83.30;;;;;;5051723;28;20029;-72
2022/08/25 12:03:31;;;;;;;7.28;2.88;;;32.80;85.90;;;;;;5048692;28;20025;-73
2022/08/25 12:06:23;;;;;;;7.18;3.20;;;32.90;82.70;;;;;;5040304;28;20101;-74
2022/08/25 12:09:04;;;;;;;5.95;3.33;;;33.10;86.60;;;;;;5039345;28;20037;-74
2022/08/25 12:11:44;;;;;;;8.60;3.30;;;33.00;88.80;;;;;;5049686;28;20032;-73
2022/08/25 12:14:36;;;;;;;5.97;3.13;;;33.00;87.30;;;;;;5050807;28;20394;-76
2022/08/25 12:17:17;;;;;;;7.10;3.83;;;32.80;90.10;;;;;;5050214;28;20060;-73
2022/08/25 12:19:43;;;;;;;6.47;4.30;;;32.90;85.80;;;;;;5043233;28;20392;-74
2022/08/25 12:22:08;;;;;;;5.53;5.03;;;33.00;86.80;;;;;;5053016;28;20453;-77
2022/08/25 12:24:43;;;;;;;6.68;4.72;;;33.10;83.20;;;;;;5040923;28;20403;-75
2022/08/25 12:27:24;;;;;;;8.45;4.40;;;33.10;82.30;;;;;;5054007;28;20473;-72
2022/08/25 12:29:59;;;;;;;4.57;4.15;;;33.10;80.30;;;;;;5053287;28;20024;-72
2022/08/25 12:32:51;;;;;;;10.95;5.20;;;33.00;79.40;;;;;;5042309;28;20013;-77
2022/08/25 12:35:54;;;;;;;7.13;4.18;;;33.00;81.70;;;;;;5039315;28;20551;-75
2022/08/25 12:38:44;;;;;;;5.88;3.70;;;33.00;85.40;;;;;;5064503;28;20025;-75
2022/08/25 12:41:13;;;;;;;7.45;3.60;;;33.00;82.90;;;;;;5045017;28;20021;-72
2022/08/25 12:43:42;;;;;;;7.32;4.68;;;33.10;84.80;;;;;;5048875;28;20052;-73
2022/08/25 12:46:20;;;;;;;6.40;3.67;;;33.10;85.40;;;;;;5054134;28;20017;-73
2022/08/25 12:48:59;;;;;;;8.32;5.03;;;33.30;86.60;;;;;;5050783;28;20433;-75
2022/08/25 12:51:42;;;;;;;7.05;4.88;;;33.40;82.10;;;;;;5049338;28;20033;-74
2022/08/25 12:54:11;;;;;;;8.70;4.05;;;33.30;81.60;;;;;;5055654;28;20112;-78
2022/08/25 12:56:43;;;;;;;5.30;3.70;;;33.20;87.90;;;;;;5057105;28;20036;-72
2022/08/25 12:59:17;;;;;;;5.43;3.50;;;33.20;90.10;;;;;;5054199;28;20029;-73
2022/08/25 13:01:58;;;;;;;7.28;3.83;;;33.20;84.00;;;;;;5053531;28;20470;-74
2022/08/25 13:05:16;;;;;;;4.20;3.38;;;33.20;84.30;;;;;;5052727;28;20033;-74
2022/08/25 13:08:00;;;;;;;4.30;3.50;;;33.20;77.30;;;;;;4972830;28;20041;-76
2022/08/25 13:10:53;;;;;;;4.32;3.38;;;33.30;86.30;;;;;;5050629;28;20034;-77
2022/08/25 13:13:43;;;;;;;6.82;3.58;;;33.00;75.10;;;;;;5042554;28;20021;-74
2022/08/25 13:16:20;;;;;;;4.22;3.15;;;33.10;82.80;;;;;;5053450;28;20056;-72
2022/08/25 13:18:46;;;;;;;3.80;3.10;;;33.30;83.00;;;;;;5034988;28;20048;-76